Time;durP1;ratioP1;P1;durP2;ratioP2;P2;SDS_P1;SDS_P2;PMS_P1;PMS_P2;Temp;Humidity;BMP_temperature;BMP_pressure;BME280_temperature;BME280_humidity;BME280_pressure;Samples;Min_cycle;Max_cycle;Signal;HPM_P1;HPM_P2
2024/01/15 00:02:09;;;;;;;6.30;0.47;;;3.80;99.90;;;;;;4995501;28;20057;-79
2024/01/15 00:04:39;;;;;;;4.53;0.35;;;3.80;99.90;;;;;;4996302;28;20034;-79
2024/01/15 00:07:05;;;;;;;4.15;0.55;;;3.80;99.90;;;;;;4996978;28;20034;-79
2024/01/15 00:09:31;;;;;;;6.63;0.40;;;3.80;99.90;;;;;;4996090;28;20412;-80
2024/01/15 00:11:57;;;;;;;6.75;0.50;;;3.80;99.90;;;;;;4995370;28;20081;-81
2024/01/15 00:14:23;;;;;;;8.50;0.70;;;3.80;99.90;;;;;;4995273;28;20027;-80
2024/01/15 00:16:51;;;;;;;7.68;0.60;;;3.70;99.90;;;;;;4979418;28;20472;-80
2024/01/15 00:19:17;;;;;;;5.70;0.50;;;3.70;99.90;;;;;;4995141;28;20068;-80
2024/01/15 00:21:43;;;;;;;5.57;0.45;;;3.70;99.90;;;;;;4996426;28;20035;-80
2024/01/15 00:24:08;;;;;;;6.28;0.40;;;3.70;99.90;;;;;;4978773;28;20034;-79
2024/01/15 00:26:34;;;;;;;7.45;0.50;;;3.60;99.90;;;;;;4978812;28;20042;-80
2024/01/15 00:28:59;;;;;;;8.27;0.40;;;3.70;99.90;;;;;;4995201;28;20037;-80
2024/01/15 00:31:26;;;;;;;8.27;0.57;;;3.60;99.90;;;;;;4995128;28;20037;-80
2024/01/15 00:33:52;;;;;;;7.30;1.00;;;3.60;99.90;;;;;;4995220;28;20376;-80
2024/01/15 00:36:18;;;;;;;5.88;0.77;;;3.60;99.90;;;;;;4994933;28;20038;-79
2024/01/15 00:38:47;;;;;;;9.73;0.40;;;3.60;99.90;;;;;;4996272;28;20424;-80
2024/01/15 00:41:13;;;;;;;9.68;0.55;;;3.50;99.90;;;;;;4996303;28;20041;-80
2024/01/15 00:43:39;;;;;;;11.27;1.10;;;3.50;99.90;;;;;;4995063;28;20062;-80
2024/01/15 00:46:05;;;;;;;5.93;1.05;;;3.50;99.90;;;;;;4978382;28;20425;-79
2024/01/15 00:48:31;;;;;;;6.57;0.65;;;3.50;99.90;;;;;;4995846;28;20041;-79
2024/01/15 00:50:57;;;;;;;8.07;0.57;;;3.40;99.90;;;;;;4979133;28;20030;-80
2024/01/15 00:53:22;;;;;;;14.82;0.88;;;3.40;99.90;;;;;;4994523;28;20066;-80
2024/01/15 00:55:48;;;;;;;7.65;0.80;;;3.40;99.90;;;;;;4995740;28;20040;-80
2024/01/15 00:58:14;;;;;;;7.05;0.40;;;3.40;99.90;;;;;;4978179;28;20046;-80
2024/01/15 01:00:40;;;;;;;8.77;0.57;;;3.40;99.90;;;;;;4977865;28;20030;-80
2024/01/15 01:03:06;;;;;;;8.63;0.50;;;3.40;99.90;;;;;;4994198;28;20512;-80
2024/01/15 01:05:33;;;;;;;14.35;0.68;;;3.30;99.90;;;;;;4994275;28;20088;-80
2024/01/15 01:07:58;;;;;;;5.78;0.70;;;3.40;99.90;;;;;;4994501;28;20520;-80
2024/01/15 01:10:24;;;;;;;11.95;0.65;;;3.40;99.90;;;;;;4994241;28;20034;-80
2024/01/15 01:12:49;;;;;;;8.88;0.60;;;3.40;99.90;;;;;;4993844;28;20038;-80
2024/01/15 01:15:15;;;;;;;11.98;0.80;;;3.40;99.90;;;;;;4994769;28;20117;-80
2024/01/15 01:17:41;;;;;;;9.23;0.70;;;3.40;99.90;;;;;;4994019;28;20034;-80
2024/01/15 01:20:09;;;;;;;5.20;0.88;;;3.40;99.90;;;;;;4993943;28;20034;-80
2024/01/15 01:22:35;;;;;;;8.40;0.60;;;3.40;99.90;;;;;;4994057;28;20034;-79
2024/01/15 01:25:01;;;;;;;4.15;0.50;;;3.40;99.90;;;;;;4994282;28;20049;-79
2024/01/15 01:27:26;;;;;;;5.93;0.55;;;3.40;99.90;;;;;;4994646;28;20038;-79
2024/01/15 01:29:52;;;;;;;9.63;0.50;;;3.30;99.90;;;;;;4993796;28;20030;-79
2024/01/15 01:32:18;;;;;;;6.05;0.57;;;3.30;99.90;;;;;;4977950;28;20432;-78
2024/01/15 01:34:44;;;;;;;8.25;0.68;;;3.30;99.90;;;;;;4993898;28;20030;-79
2024/01/15 01:37:15;;;;;;;8.50;1.05;;;3.20;99.90;;;;;;4993557;28;20072;-79
2024/01/15 01:39:42;;;;;;;8.60;0.93;;;3.20;99.90;;;;;;4994840;28;20036;-79
2024/01/15 01:42:08;;;;;;;9.00;0.40;;;3.30;99.90;;;;;;4994035;28;20481;-79
2024/01/15 01:44:34;;;;;;;7.97;0.63;;;3.30;99.90;;;;;;4994877;28;20358;-79
2024/01/15 01:47:00;;;;;;;9.77;0.70;;;3.20;99.90;;;;;;4993365;28;20034;-80
2024/01/15 01:49:27;;;;;;;7.47;1.25;;;3.30;99.90;;;;;;4995154;28;20108;-80
2024/01/15 01:51:57;;;;;;;8.75;0.40;;;3.30;99.90;;;;;;4993843;28;20392;-80
2024/01/15 01:54:23;;;;;;;9.30;0.82;;;3.30;99.90;;;;;;4993632;28;20082;-80
2024/01/15 01:56:50;;;;;;;7.65;0.68;;;3.30;99.90;;;;;;4994589;28;20038;-80
2024/01/15 01:59:16;;;;;;;10.15;0.60;;;3.40;99.90;;;;;;4993701;28;20104;-80
2024/01/15 02:01:44;;;;;;;10.15;0.95;;;3.40;99.90;;;;;;4994253;28;20035;-79
2024/01/15 02:04:10;;;;;;;7.53;0.90;;;3.40;99.90;;;;;;4994660;28;20069;-81
2024/01/15 02:06:36;;;;;;;7.40;0.50;;;3.40;99.90;;;;;;4977371;28;20070;-81
2024/01/15 02:09:03;;;;;;;8.55;0.60;;;3.40;99.90;;;;;;4993090;28;20150;-80
2024/01/15 02:11:28;;;;;;;7.15;0.68;;;3.30;99.90;;;;;;4977832;28;20053;-81
2024/01/15 02:13:54;;;;;;;11.23;0.70;;;3.30;99.90;;;;;;4994757;28;20453;-80
2024/01/15 02:16:20;;;;;;;9.23;0.90;;;3.30;99.90;;;;;;4993364;28;20030;-80
2024/01/15 02:18:46;;;;;;;12.73;1.05;;;3.30;99.90;;;;;;4993529;28;20453;-80
2024/01/15 02:21:12;;;;;;;6.10;0.50;;;3.30;99.90;;;;;;4994094;28;20543;-80
2024/01/15 02:23:38;;;;;;;9.13;0.45;;;3.30;99.90;;;;;;4993246;28;20034;-80
2024/01/15 02:26:05;;;;;;;13.38;0.88;;;3.30;99.90;;;;;;4994839;28;20065;-79
2024/01/15 02:28:32;;;;;;;9.13;0.55;;;3.30;99.90;;;;;;4993059;28;20026;-79
2024/01/15 02:30:58;;;;;;;8.98;1.13;;;3.20;99.90;;;;;;4993602;28;20034;-79
2024/01/15 02:33:23;;;;;;;6.47;0.52;;;3.20;99.90;;;;;;4993947;28;20037;-80
2024/01/15 02:35:52;;;;;;;12.80;0.98;;;3.30;99.90;;;;;;4994285;28;20072;-79
2024/01/15 02:38:18;;;;;;;7.75;0.80;;;3.30;99.90;;;;;;4993839;28;20034;-79
2024/01/15 02:40:45;;;;;;;13.50;1.00;;;3.30;99.90;;;;;;4993908;28;20030;-79
2024/01/15 02:43:10;;;;;;;11.43;0.88;;;3.20;99.90;;;;;;4992919;28;20457;-79
2024/01/15 02:45:36;;;;;;;9.77;0.65;;;3.20;99.90;;;;;;4993464;28;20034;-79
2024/01/15 02:48:02;;;;;;;13.25;1.08;;;3.20;99.90;;;;;;4993765;28;20034;-79
2024/01/15 02:50:28;;;;;;;8.77;0.65;;;3.20;99.90;;;;;;4994055;28;20117;-79
2024/01/15 02:52:53;;;;;;;15.27;0.80;;;3.30;99.90;;;;;;4992931;28;20370;-79
2024/01/15 02:55:19;;;;;;;14.55;1.05;;;3.20;99.90;;;;;;4992638;28;20038;-80
2024/01/15 02:57:44;;;;;;;9.82;1.00;;;3.10;99.90;;;;;;4993672;28;20041;-80
2024/01/15 03:00:11;;;;;;;8.18;0.68;;;3.10;99.90;;;;;;4992902;28;20037;-80
2024/01/15 03:02:40;;;;;;;12.63;1.02;;;3.10;99.90;;;;;;4993141;28;20035;-80
2024/01/15 03:05:10;;;;;;;11.38;1.10;;;3.10;99.90;;;;;;4993582;28;20468;-79
2024/01/15 03:07:35;;;;;;;10.20;0.65;;;3.10;99.90;;;;;;4977093;28;20129;-80
2024/01/15 03:10:01;;;;;;;6.78;1.00;;;3.10;99.90;;;;;;4993873;28;20143;-80
2024/01/15 03:12:27;;;;;;;5.57;0.75;;;3.10;99.90;;;;;;4993882;28;20088;-80
2024/01/15 03:14:52;;;;;;;7.40;0.40;;;3.20;99.90;;;;;;4992602;28;20065;-80
2024/01/15 03:17:18;;;;;;;10.40;0.73;;;3.20;99.90;;;;;;4993987;28;20133;-80
2024/01/15 03:19:44;;;;;;;7.47;0.50;;;3.20;99.90;;;;;;4992600;28;20034;-80
2024/01/15 03:22:09;;;;;;;15.20;1.08;;;3.20;99.90;;;;;;4994164;28;20058;-80
2024/01/15 03:24:36;;;;;;;9.68;1.05;;;3.20;99.90;;;;;;4995864;28;20061;-79
2024/01/15 03:27:02;;;;;;;5.50;0.50;;;3.20;99.90;;;;;;4997843;28;20065;-80
2024/01/15 03:29:28;;;;;;;10.68;0.68;;;3.20;99.90;;;;;;4997736;28;20041;-80
2024/01/15 03:31:53;;;;;;;10.73;0.98;;;3.20;99.90;;;;;;4996302;28;20034;-80
2024/01/15 03:34:19;;;;;;;11.90;1.15;;;3.30;99.90;;;;;;4997154;28;20409;-80
2024/01/15 03:36:45;;;;;;;9.20;0.77;;;3.30;99.90;;;;;;4997299;28;20081;-80
2024/01/15 03:39:10;;;;;;;11.88;0.50;;;3.30;99.90;;;;;;4997308;28;20045;-80
2024/01/15 03:41:36;;;;;;;12.30;0.95;;;3.20;99.90;;;;;;4997413;28;20385;-81
2024/01/15 03:44:02;;;;;;;16.08;1.08;;;3.20;99.90;;;;;;4996075;28;20040;-81
2024/01/15 03:46:28;;;;;;;8.32;0.57;;;3.10;99.90;;;;;;4996292;28;20424;-80
2024/01/15 03:48:53;;;;;;;9.90;0.50;;;3.10;99.90;;;;;;4995974;28;20365;-80
2024/01/15 03:51:19;;;;;;;10.10;0.70;;;3.10;99.90;;;;;;4979721;28;20472;-81
2024/01/15 03:53:45;;;;;;;5.60;0.32;;;3.10;99.90;;;;;;4995852;28;20455;-81
2024/01/15 03:56:11;;;;;;;4.93;0.50;;;3.10;99.90;;;;;;4997211;28;20060;-81
2024/01/15 03:58:36;;;;;;;10.23;0.70;;;3.10;99.90;;;;;;4979850;28;20122;-81
2024/01/15 04:01:02;;;;;;;8.25;0.68;;;3.10;99.90;;;;;;4995512;28;20138;-80
2024/01/15 04:03:28;;;;;;;10.68;1.42;;;3.10;99.90;;;;;;4995598;28;20027;-80
2024/01/15 04:05:53;;;;;;;8.98;0.75;;;3.20;99.90;;;;;;4995450;28;20140;-80
2024/01/15 04:08:19;;;;;;;9.27;0.47;;;3.20;99.90;;;;;;4995705;28;20042;-80
2024/01/15 04:10:45;;;;;;;9.32;0.70;;;3.20;99.90;;;;;;4979240;28;20039;-80
2024/01/15 04:13:10;;;;;;;8.35;0.60;;;3.20;99.90;;;;;;4996697;28;20030;-80
2024/01/15 04:15:36;;;;;;;5.60;0.43;;;3.30;99.90;;;;;;4996663;28;20035;-80
2024/01/15 04:18:03;;;;;;;6.18;0.60;;;3.30;99.90;;;;;;4995129;28;20077;-80
2024/01/15 04:20:28;;;;;;;8.90;0.75;;;3.30;99.90;;;;;;4996642;28;20369;-80
2024/01/15 04:22:54;;;;;;;7.57;0.47;;;3.40;99.90;;;;;;4996495;28;20031;-81
2024/01/15 04:25:20;;;;;;;5.57;0.88;;;3.40;99.90;;;;;;4995303;28;20133;-80
2024/01/15 04:27:45;;;;;;;9.10;0.47;;;3.40;99.90;;;;;;4996350;28;20030;-80
2024/01/15 04:30:11;;;;;;;9.15;1.00;;;3.30;99.90;;;;;;4979432;28;20038;-80
2024/01/15 04:32:37;;;;;;;12.50;0.82;;;3.30;99.90;;;;;;4995264;28;20041;-80
2024/01/15 04:35:03;;;;;;;8.75;0.90;;;3.20;99.90;;;;;;4995121;28;20030;-81
2024/01/15 04:37:29;;;;;;;7.38;0.82;;;3.20;99.90;;;;;;4995050;28;20118;-80
2024/01/15 04:39:55;;;;;;;8.25;0.65;;;3.30;99.90;;;;;;4995463;28;20054;-80
2024/01/15 04:42:23;;;;;;;11.98;0.95;;;3.20;99.90;;;;;;4994819;28;20421;-79
2024/01/15 04:44:49;;;;;;;12.85;0.63;;;3.20;99.90;;;;;;4994720;28;20459;-80
2024/01/15 04:47:15;;;;;;;6.85;0.45;;;3.20;99.90;;;;;;4994854;28;20369;-80
2024/01/15 04:49:41;;;;;;;9.90;0.60;;;3.20;99.90;;;;;;4995008;28;20038;-80
2024/01/15 04:52:06;;;;;;;11.95;1.10;;;3.10;99.90;;;;;;4994680;28;20064;-80
2024/01/15 04:54:32;;;;;;;6.25;0.68;;;3.10;99.90;;;;;;4994834;28;20454;-79
2024/01/15 04:56:57;;;;;;;3.47;0.38;;;3.00;99.90;;;;;;4994557;28;20516;-79
2024/01/15 04:59:23;;;;;;;9.23;0.75;;;3.00;99.90;;;;;;4996116;28;20126;-80
2024/01/15 05:01:49;;;;;;;7.40;0.60;;;3.10;99.90;;;;;;4995479;28;20031;-79
2024/01/15 05:04:15;;;;;;;8.95;0.60;;;3.00;99.90;;;;;;4996010;28;20477;-79
2024/01/15 05:06:40;;;;;;;9.68;0.68;;;3.00;99.90;;;;;;4994220;28;20041;-80
2024/01/15 05:09:06;;;;;;;8.88;0.93;;;3.00;99.90;;;;;;4994634;28;20034;-80
2024/01/15 05:11:32;;;;;;;9.38;0.80;;;3.10;99.90;;;;;;4995795;28;20452;-81
2024/01/15 05:13:58;;;;;;;9.98;1.60;;;3.00;99.90;;;;;;4994779;28;20046;-80
2024/01/15 05:16:24;;;;;;;9.40;0.80;;;3.00;99.90;;;;;;4994236;28;20053;-77
2024/01/15 05:18:49;;;;;;;7.80;0.70;;;2.90;99.90;;;;;;4993800;28;20066;-79
2024/01/15 05:21:15;;;;;;;12.15;0.80;;;2.90;99.90;;;;;;4995335;28;20109;-80
2024/01/15 05:23:41;;;;;;;10.40;0.70;;;2.80;99.90;;;;;;4994972;28;20081;-80
2024/01/15 05:26:08;;;;;;;11.88;0.77;;;2.80;99.90;;;;;;4993724;28;20129;-80
2024/01/15 05:28:34;;;;;;;8.32;0.68;;;2.80;99.90;;;;;;4994122;28;20380;-80
2024/01/15 05:31:00;;;;;;;13.18;0.73;;;2.80;99.90;;;;;;4994353;28;20039;-80
2024/01/15 05:33:26;;;;;;;7.03;0.50;;;2.80;99.90;;;;;;4978247;28;20069;-80
2024/01/15 05:35:51;;;;;;;9.57;0.40;;;2.80;99.90;;;;;;4994986;28;20037;-80
2024/01/15 05:38:17;;;;;;;7.47;0.85;;;2.80;99.90;;;;;;4993892;28;20026;-81
2024/01/15 05:40:43;;;;;;;8.45;0.80;;;2.90;99.90;;;;;;4993793;28;20459;-81
2024/01/15 05:43:08;;;;;;;10.23;1.10;;;2.90;99.90;;;;;;4977514;28;20038;-81
2024/01/15 05:45:35;;;;;;;6.55;0.60;;;2.90;99.90;;;;;;4993792;28;20483;-81
2024/01/15 05:48:01;;;;;;;5.60;0.47;;;2.80;99.90;;;;;;4993646;28;20030;-80
2024/01/15 05:50:27;;;;;;;6.60;0.40;;;2.80;99.90;;;;;;4993456;28;20030;-81
2024/01/15 05:52:52;;;;;;;5.47;0.50;;;2.80;99.90;;;;;;4994047;28;20491;-82
2024/01/15 05:55:18;;;;;;;6.97;0.60;;;2.80;99.90;;;;;;4993499;28;20033;-81
2024/01/15 05:57:44;;;;;;;6.88;0.57;;;2.80;99.90;;;;;;4993544;28;20034;-81
2024/01/15 06:00:10;;;;;;;9.52;0.70;;;2.80;99.90;;;;;;4993427;28;20049;-82
2024/01/15 06:02:40;;;;;;;9.70;0.60;;;2.80;99.90;;;;;;4993421;28;20038;-82
2024/01/15 06:05:06;;;;;;;4.32;0.70;;;2.80;99.90;;;;;;4993348;28;20048;-81
2024/01/15 06:07:33;;;;;;;4.65;0.43;;;2.80;99.90;;;;;;4994585;28;20034;-75
2024/01/15 06:09:59;;;;;;;3.67;0.50;;;2.80;99.90;;;;;;4994469;28;20030;-75
2024/01/15 06:12:24;;;;;;;5.85;0.68;;;2.80;99.90;;;;;;4994321;28;20092;-75
2024/01/15 06:14:50;;;;;;;5.88;0.80;;;2.80;99.90;;;;;;4994462;28;20073;-79
2024/01/15 06:17:16;;;;;;;6.05;0.70;;;2.90;99.90;;;;;;4993848;28;20484;-80
2024/01/15 06:19:41;;;;;;;3.65;0.40;;;2.90;99.90;;;;;;4992679;28;20042;-76
2024/01/15 06:22:07;;;;;;;7.15;0.77;;;2.90;99.90;;;;;;4994369;28;20026;-75
2024/01/15 06:24:33;;;;;;;4.55;0.60;;;3.00;99.90;;;;;;4993856;28;20085;-76
2024/01/15 06:26:59;;;;;;;4.15;0.70;;;3.00;99.90;;;;;;4994326;28;20030;-76
2024/01/15 06:29:26;;;;;;;4.30;0.35;;;3.00;99.90;;;;;;4994149;28;20022;-76
2024/01/15 06:31:52;;;;;;;9.45;0.82;;;3.00;99.90;;;;;;4994206;28;20031;-75
2024/01/15 06:34:18;;;;;;;3.67;0.40;;;3.00;99.90;;;;;;4994183;28;20034;-74
2024/01/15 06:36:43;;;;;;;4.50;0.40;;;2.90;99.90;;;;;;4992493;28;20031;-75
2024/01/15 06:39:10;;;;;;;4.72;0.55;;;3.00;99.90;;;;;;4992939;28;20034;-73
2024/01/15 06:41:41;;;;;;;6.22;0.60;;;3.00;99.90;;;;;;4993734;28;20037;-73
2024/01/15 06:44:07;;;;;;;3.33;0.60;;;3.00;99.90;;;;;;4993446;28;20037;-72
2024/01/15 06:46:32;;;;;;;6.80;1.00;;;3.00;99.90;;;;;;4993283;28;20034;-77
2024/01/15 06:48:58;;;;;;;3.45;0.55;;;2.90;99.90;;;;;;4993985;28;20085;-76
2024/01/15 06:51:24;;;;;;;6.05;0.50;;;3.00;99.90;;;;;;4994250;28;20030;-77
2024/01/15 06:53:49;;;;;;;6.05;0.70;;;3.00;99.90;;;;;;4994440;28;20027;-76
2024/01/15 06:56:15;;;;;;;3.30;0.57;;;3.00;99.90;;;;;;4993731;28;20117;-77
2024/01/15 06:58:41;;;;;;;3.05;0.40;;;3.10;99.90;;;;;;4994373;28;20034;-77
2024/01/15 07:01:07;;;;;;;4.72;0.70;;;3.20;99.90;;;;;;4996472;28;20504;-75
2024/01/15 07:03:33;;;;;;;4.15;0.80;;;3.20;99.90;;;;;;4997810;28;20042;-73
2024/01/15 07:05:59;;;;;;;1.88;0.40;;;3.20;99.90;;;;;;4997358;28;20031;-73
2024/01/15 07:08:24;;;;;;;3.90;1.55;;;3.20;99.90;;;;;;4997766;28;20503;-73
2024/01/15 07:10:50;;;;;;;3.67;1.05;;;3.30;99.90;;;;;;4997251;28;20034;-71
2024/01/15 07:13:16;;;;;;;4.60;1.40;;;3.30;99.90;;;;;;4997229;28;20042;-71
2024/01/15 07:15:41;;;;;;;6.53;2.03;;;3.40;99.90;;;;;;4998026;28;20362;-71
2024/01/15 07:18:07;;;;;;;4.85;3.13;;;3.50;99.90;;;;;;4997281;28;20393;-72
2024/01/15 07:20:32;;;;;;;4.55;3.88;;;3.40;99.90;;;;;;4997335;28;20481;-71
2024/01/15 07:22:58;;;;;;;6.55;4.40;;;3.40;99.90;;;;;;4997149;28;20039;-71
2024/01/15 07:25:26;;;;;;;6.00;4.35;;;3.40;99.90;;;;;;4997202;28;20464;-72
2024/01/15 07:27:53;;;;;;;6.57;4.88;;;3.40;99.90;;;;;;4997410;28;20045;-72
2024/01/15 07:30:19;;;;;;;7.00;5.05;;;3.40;99.90;;;;;;4996406;28;20038;-76
2024/01/15 07:32:44;;;;;;;4.80;4.05;;;3.40;99.90;;;;;;4997154;28;20113;-72
2024/01/15 07:35:10;;;;;;;4.65;4.15;;;3.40;99.90;;;;;;4996776;28;20037;-75
2024/01/15 07:37:36;;;;;;;6.35;4.32;;;3.40;99.90;;;;;;4997121;28;20034;-75
2024/01/15 07:40:04;;;;;;;4.93;4.30;;;3.30;99.90;;;;;;4995259;28;20038;-72
2024/01/15 07:42:29;;;;;;;6.22;4.50;;;3.30;99.90;;;;;;4996762;28;20035;-71
2024/01/15 07:44:55;;;;;;;5.20;4.28;;;3.30;99.90;;;;;;4997117;28;20365;-72
2024/01/15 07:47:21;;;;;;;5.75;4.15;;;3.30;99.90;;;;;;4995417;28;20034;-72
2024/01/15 07:49:46;;;;;;;6.72;4.10;;;3.30;99.90;;;;;;4997580;28;20026;-72
2024/01/15 07:52:13;;;;;;;5.93;4.45;;;3.40;99.90;;;;;;4997255;28;20442;-73
2024/01/15 07:54:39;;;;;;;5.28;4.53;;;3.40;99.90;;;;;;4995616;28;20030;-71
2024/01/15 07:57:05;;;;;;;6.72;4.90;;;3.50;99.90;;;;;;4996788;28;20088;-71
2024/01/15 07:59:30;;;;;;;5.40;4.30;;;3.40;99.90;;;;;;4979345;28;20042;-71
2024/01/15 08:01:56;;;;;;;4.70;4.30;;;3.50;99.90;;;;;;4997053;28;20088;-71
2024/01/15 08:04:22;;;;;;;4.85;4.25;;;3.50;99.90;;;;;;4996505;28;20109;-73
2024/01/15 08:06:48;;;;;;;5.05;4.50;;;3.50;99.90;;;;;;4995663;28;20034;-73
2024/01/15 08:09:13;;;;;;;4.55;4.07;;;3.50;99.90;;;;;;4996410;28;20110;-71
2024/01/15 08:11:41;;;;;;;4.55;4.15;;;3.60;99.90;;;;;;4996788;28;20532;-71
2024/01/15 08:14:07;;;;;;;3.95;3.65;;;3.60;99.90;;;;;;4996882;28;20065;-74
2024/01/15 08:16:33;;;;;;;4.15;3.83;;;3.60;99.90;;;;;;4996346;28;20058;-73
2024/01/15 08:18:59;;;;;;;3.78;2.65;;;3.60;99.90;;;;;;4996312;28;20544;-78
2024/01/15 08:21:24;;;;;;;4.55;3.45;;;3.70;99.90;;;;;;4979121;28;20097;-77
2024/01/15 08:23:50;;;;;;;2.60;2.40;;;3.70;99.90;;;;;;4996690;28;20054;-77
2024/01/15 08:26:15;;;;;;;3.15;2.55;;;3.80;99.90;;;;;;4995189;28;20068;-77
2024/01/15 08:28:41;;;;;;;5.03;1.77;;;3.70;99.90;;;;;;4996374;28;20037;-76
2024/01/15 08:31:07;;;;;;;2.72;1.98;;;3.80;99.90;;;;;;4995097;28;20045;-76
2024/01/15 08:33:32;;;;;;;2.90;1.70;;;3.80;99.90;;;;;;4996277;28;20035;-76
2024/01/15 08:35:58;;;;;;;4.78;1.58;;;3.80;99.90;;;;;;4995809;28;20104;-75
2024/01/15 08:38:25;;;;;;;1.98;1.23;;;3.80;99.90;;;;;;4996064;28;20037;-76
2024/01/15 08:40:53;;;;;;;2.20;1.27;;;3.80;99.90;;;;;;4995056;28;20030;-74
2024/01/15 08:43:18;;;;;;;2.38;1.17;;;3.80;99.90;;;;;;4995881;28;20034;-76
2024/01/15 08:45:45;;;;;;;2.63;1.70;;;3.80;99.90;;;;;;4994655;28;20366;-74
2024/01/15 08:48:10;;;;;;;3.65;1.48;;;3.80;99.90;;;;;;4995775;28;20034;-74
2024/01/15 08:50:36;;;;;;;3.45;1.10;;;3.80;99.90;;;;;;4994395;28;20495;-74
2024/01/15 08:53:02;;;;;;;2.95;1.13;;;3.80;99.90;;;;;;4995574;28;20050;-77
2024/01/15 08:55:28;;;;;;;3.00;1.00;;;3.80;99.90;;;;;;4994705;28;20465;-76
2024/01/15 08:57:54;;;;;;;2.92;1.30;;;3.80;99.90;;;;;;4995547;28;20031;-77
2024/01/15 09:00:20;;;;;;;4.32;0.90;;;3.70;99.90;;;;;;4995467;28;20450;-80
2024/01/15 09:02:45;;;;;;;4.60;0.95;;;3.70;99.90;;;;;;4995557;28;20066;-76
2024/01/15 09:05:11;;;;;;;4.32;1.67;;;3.70;99.90;;;;;;4995337;28;20030;-76
2024/01/15 09:07:37;;;;;;;2.78;1.35;;;3.70;99.90;;;;;;4995644;28;20088;-76
2024/01/15 09:10:03;;;;;;;3.42;1.27;;;3.70;99.90;;;;;;4995296;28;20061;-76
2024/01/15 09:12:29;;;;;;;3.25;1.58;;;3.60;99.90;;;;;;4993965;28;20125;-75
2024/01/15 09:14:55;;;;;;;5.18;1.27;;;3.60;99.90;;;;;;4994228;28;20069;-71
2024/01/15 09:17:24;;;;;;;4.60;1.45;;;3.60;99.90;;;;;;4995411;28;20030;-76
2024/01/15 09:19:50;;;;;;;5.32;1.40;;;3.60;99.90;;;;;;4995615;28;20122;-71
2024/01/15 09:22:19;;;;;;;6.90;1.55;;;3.70;99.90;;;;;;4995232;28;20467;-72
2024/01/15 09:24:45;;;;;;;5.75;2.00;;;3.70;99.90;;;;;;4993795;28;20547;-72
2024/01/15 09:27:11;;;;;;;5.40;1.92;;;3.70;99.90;;;;;;4994955;28;20130;-74
2024/01/15 09:29:39;;;;;;;4.30;1.85;;;3.70;99.90;;;;;;4993761;28;20473;-76
2024/01/15 09:32:07;;;;;;;6.78;2.65;;;3.70;99.90;;;;;;4995228;28;20161;-78
2024/01/15 09:34:33;;;;;;;5.90;2.05;;;3.70;99.90;;;;;;4995845;28;20122;-78
2024/01/15 09:36:59;;;;;;;3.10;2.00;;;3.60;99.90;;;;;;4995481;28;20386;-78
2024/01/15 09:39:27;;;;;;;6.63;2.30;;;3.60;99.90;;;;;;4995162;28;20132;-79
2024/01/15 09:41:54;;;;;;;4.43;2.35;;;3.60;99.90;;;;;;4995322;28;20041;-76
2024/01/15 09:44:20;;;;;;;5.57;2.30;;;3.60;99.90;;;;;;4994692;28;20026;-76
2024/01/15 09:46:50;;;;;;;5.80;2.28;;;3.60;99.90;;;;;;4994580;28;20027;-76
2024/01/15 09:49:16;;;;;;;8.20;1.83;;;3.60;99.90;;;;;;4994838;28;20058;-75
2024/01/15 09:51:42;;;;;;;6.63;2.10;;;3.60;99.90;;;;;;4994594;28;20130;-75
2024/01/15 09:54:08;;;;;;;3.22;1.08;;;3.70;99.90;;;;;;4994973;28;20089;-74
2024/01/15 09:56:35;;;;;;;5.35;0.80;;;3.60;99.90;;;;;;4993351;28;20038;-74
2024/01/15 09:59:01;;;;;;;5.80;0.90;;;3.50;99.90;;;;;;4994332;28;20552;-71
2024/01/15 10:01:28;;;;;;;6.78;1.55;;;3.40;99.90;;;;;;4994480;28;20034;-71
2024/01/15 10:03:55;;;;;;;2.80;0.80;;;3.40;99.90;;;;;;4994245;28;20030;-71
2024/01/15 10:06:22;;;;;;;4.65;0.65;;;3.40;99.90;;;;;;4993889;28;20062;-71
2024/01/15 10:08:49;;;;;;;1.55;0.30;;;3.50;99.90;;;;;;4994628;28;20023;-71
2024/01/15 10:11:16;;;;;;;1.50;0.60;;;3.50;99.90;;;;;;4994138;28;20081;-71
2024/01/15 10:13:43;;;;;;;3.55;0.30;;;3.50;99.90;;;;;;4993442;28;20034;-71
2024/01/15 10:16:09;;;;;;;3.25;0.30;;;3.60;99.90;;;;;;4994183;28;20038;-71
2024/01/15 10:18:36;;;;;;;2.63;0.65;;;3.70;99.90;;;;;;4992491;28;20184;-71
2024/01/15 10:21:03;;;;;;;4.05;1.02;;;3.70;99.90;;;;;;4993005;28;20038;-71
2024/01/15 10:23:31;;;;;;;3.15;0.40;;;3.80;99.90;;;;;;4994047;28;20067;-71
2024/01/15 10:25:57;;;;;;;5.30;0.40;;;3.80;99.90;;;;;;4993671;28;20080;-71
2024/01/15 10:28:27;;;;;;;5.82;0.50;;;4.00;99.90;;;;;;4994159;28;20035;-72
2024/01/15 10:30:55;;;;;;;1.77;0.32;;;4.20;99.90;;;;;;4994109;28;20096;-72
2024/01/15 10:33:27;;;;;;;1.67;0.22;;;4.20;99.90;;;;;;4994104;28;20030;-71
2024/01/15 10:35:59;;;;;;;3.22;0.30;;;4.10;99.90;;;;;;4994091;28;20034;-71
2024/01/15 10:38:25;;;;;;;4.20;0.63;;;4.10;99.90;;;;;;4993972;28;20123;-71
2024/01/15 10:40:52;;;;;;;5.22;0.43;;;3.90;99.90;;;;;;4993918;28;20039;-71
2024/01/15 10:43:18;;;;;;;4.18;0.70;;;3.80;99.90;;;;;;4994450;28;20081;-71
2024/01/15 10:45:46;;;;;;;4.00;0.70;;;3.70;99.90;;;;;;4994054;28;20420;-71
2024/01/15 10:48:12;;;;;;;8.95;2.03;;;3.60;99.90;;;;;;4994293;28;20030;-74
2024/01/15 10:50:38;;;;;;;6.05;1.02;;;3.60;99.90;;;;;;4993771;28;20039;-74
2024/01/15 10:53:04;;;;;;;9.85;1.30;;;3.60;99.90;;;;;;4992670;28;20409;-74
2024/01/15 10:55:32;;;;;;;4.97;1.27;;;3.50;99.90;;;;;;4993775;28;20023;-74
2024/01/15 10:57:58;;;;;;;4.32;1.13;;;3.50;99.90;;;;;;4993841;28;20039;-76
2024/01/15 11:00:25;;;;;;;2.65;1.38;;;3.50;99.90;;;;;;4993887;28;20034;-76
2024/01/15 11:02:51;;;;;;;4.25;1.58;;;3.60;99.90;;;;;;4994630;28;20033;-76
2024/01/15 11:05:22;;;;;;;4.80;1.50;;;3.60;99.90;;;;;;4993462;28;20056;-75
2024/01/15 11:07:48;;;;;;;4.57;1.40;;;3.60;99.90;;;;;;4993322;28;20038;-76
2024/01/15 11:10:43;;;;;;;5.43;1.20;;;3.50;99.90;;;;;;4993862;28;20464;-75
2024/01/15 11:13:13;;;;;;;5.47;1.55;;;3.50;99.90;;;;;;4993636;28;20415;-74
2024/01/15 11:15:58;;;;;;;6.78;1.70;;;3.40;99.90;;;;;;4993729;28;20034;-74
2024/01/15 11:18:24;;;;;;;6.35;1.52;;;3.40;99.90;;;;;;4993484;28;20347;-75
2024/01/15 11:21:16;;;;;;;6.45;1.88;;;3.40;99.90;;;;;;4993171;28;20030;-74
2024/01/15 11:23:42;;;;;;;6.05;1.50;;;3.50;99.90;;;;;;4993991;28;20034;-75
2024/01/15 11:26:27;;;;;;;7.57;1.15;;;3.50;99.90;;;;;;4991758;28;20064;-76
2024/01/15 11:28:52;;;;;;;3.78;1.10;;;3.60;99.90;;;;;;4993582;28;20359;-75
2024/01/15 11:31:18;;;;;;;6.28;0.95;;;3.70;99.90;;;;;;4993945;28;20121;-75
2024/01/15 11:33:50;;;;;;;7.43;1.38;;;3.70;99.90;;;;;;4993581;28;20039;-75
2024/01/15 11:36:16;;;;;;;10.73;1.47;;;3.70;99.90;;;;;;4993856;28;20027;-73
2024/01/15 11:38:41;;;;;;;4.40;1.10;;;3.70;99.90;;;;;;4992030;28;20320;-75
2024/01/15 11:41:16;;;;;;;6.22;1.10;;;3.90;99.90;;;;;;4993048;28;20481;-75
2024/01/15 11:43:42;;;;;;;7.18;1.05;;;4.00;99.90;;;;;;4993063;28;20063;-76
2024/01/15 11:46:14;;;;;;;7.65;1.48;;;4.00;99.90;;;;;;4997045;28;20027;-78
2024/01/15 11:48:47;;;;;;;4.82;1.00;;;4.10;99.90;;;;;;4996942;28;20033;-78
2024/01/15 11:51:13;;;;;;;5.80;0.90;;;4.10;99.90;;;;;;4997000;28;20117;-79
2024/01/15 11:53:52;;;;;;;11.15;1.23;;;4.20;99.90;;;;;;4979158;28;20122;-79
2024/01/15 11:56:20;;;;;;;12.18;2.40;;;4.20;99.90;;;;;;4997048;28;20031;-78
2024/01/15 11:58:47;;;;;;;7.38;0.98;;;4.20;99.90;;;;;;4997120;28;20034;-78
2024/01/15 12:01:13;;;;;;;3.33;0.98;;;4.10;99.90;;;;;;4997087;28;20033;-78
2024/01/15 12:03:38;;;;;;;7.13;1.13;;;4.00;99.90;;;;;;4996959;28;20034;-78
2024/01/15 12:06:07;;;;;;;9.18;1.17;;;4.00;99.90;;;;;;4996670;28;20065;-78
2024/01/15 12:08:33;;;;;;;7.28;1.48;;;4.10;99.90;;;;;;4995551;28;20039;-78
2024/01/15 12:10:58;;;;;;;4.78;0.60;;;4.20;99.90;;;;;;4996002;28;20042;-78
2024/01/15 12:13:24;;;;;;;8.90;1.52;;;4.30;99.90;;;;;;4996820;28;20183;-82
2024/01/15 12:15:50;;;;;;;10.85;0.80;;;4.40;99.90;;;;;;4997199;28;20354;-79
2024/01/15 12:18:18;;;;;;;7.50;0.82;;;4.40;99.90;;;;;;4997313;28;20045;-78
2024/01/15 12:20:46;;;;;;;4.13;0.50;;;4.40;99.90;;;;;;4996607;28;20039;-80
2024/01/15 12:23:13;;;;;;;8.77;0.95;;;4.40;99.90;;;;;;4996679;28;20034;-79
2024/01/15 12:25:39;;;;;;;7.22;0.88;;;4.50;99.90;;;;;;4996432;28;20508;-78
2024/01/15 12:28:06;;;;;;;8.57;0.55;;;4.50;99.90;;;;;;4996772;28;20081;-79
2024/01/15 12:30:34;;;;;;;8.32;1.27;;;4.60;99.90;;;;;;4996569;28;20113;-80
2024/01/15 12:33:04;;;;;;;3.50;0.50;;;4.60;99.90;;;;;;4996792;28;20031;-80
2024/01/15 12:35:30;;;;;;;4.57;0.52;;;4.60;99.90;;;;;;4997734;28;20109;-80
2024/01/15 12:37:56;;;;;;;5.60;0.55;;;4.70;99.90;;;;;;4996294;28;20540;-81
2024/01/15 12:40:22;;;;;;;6.60;0.63;;;4.60;99.90;;;;;;4996287;28;20050;-75
2024/01/15 12:42:48;;;;;;;6.90;0.73;;;4.60;99.90;;;;;;4995785;28;20026;-78
2024/01/15 12:45:14;;;;;;;7.22;0.80;;;4.70;99.90;;;;;;4996405;28;20446;-83
2024/01/15 12:47:40;;;;;;;3.50;0.55;;;4.70;99.90;;;;;;4997796;28;20109;-85
2024/01/15 12:50:08;;;;;;;6.28;0.57;;;4.50;99.90;;;;;;4997047;28;20034;-85
2024/01/15 12:52:33;;;;;;;7.43;0.40;;;4.50;99.90;;;;;;4998299;28;20018;-85